South Bethlehem, NY (12161)

10:51 PM EST on December 24, 2014 (GMT -0500)
Callanan's Corners | Change Station
CLOSE
Current Station
Personal Weather Station
Location: Ravena, NY
Elevation: 387 ft
Nearby Weather Stations
Active Advisory: Areal Flood Watch, Wind Advisory

Elev 387 ft 42.53 °N, 73.89 °W | Updated 2 minutes ago

Fog
Fog
48.3 °F
Feels Like 48 °F
N
1.0
Wind Variable Wind from SE
Gusts 5.0 mph

Today
High -- | Low -- °F
--% Chance of Precip.
Yesterday
High -- | Low -- °F
Precip. -- in
7:23 AM 4:27 PM
Waxing Crescent, 13% visible
Pressure 29.51 in
Visibility 1.5 miles
Clouds Overcast 300 ft
Windchill 48 °F
Dew Point 48 °F
Humidity 99%
Rainfall 0.14 in
Snow Depth Not available.
UV 0 out of 12
Pollen .10 out of 12
Air Quality Not available.
Flu Activity Not available.
METAR KALB 250251Z 13003KT 1 1/2SM -DZ BR OVC003 09/08 A2950 RMK AO2 SFC VIS 2 SLP992 P0000 60001 T00890078 58036

More Conditions Fewer Conditions

Pressure 29.51 in
Visibility 1.5 miles
Clouds Overcast 300 ft
Windchill 48 °F
Dew Point 48 °F
Humidity 99%
Rainfall 0.14 in
Snow Depth Not available.
UV 0 out of 12
Pollen .10 out of 12
Air Quality Not available.
Flu Activity Not available.
METAR KALB 250251Z 13003KT 1 1/2SM -DZ BR OVC003 09/08 A2950 RMK AO2 SFC VIS 2 SLP992 P0000 60001 T00890078 58036

More Conditions Fewer Conditions

10-Day Weather Forecast

Almanac

Astronomy

Dec. 24, 2014 Rise Set
Actual Time
Civil Twilight
Nautical Twilight
Astronomical Twilight
Moon
Length of Visible Light
Length of Day
Tomorrow will be .
, % of the Moon is Illuminated

Today's Extremes

State Highs State Lows

Community

WunderPhotos

Upload Photos

1,780,225 photos uploaded!

WunderBlogs® & News

Nearby

Air Quality

  Air Quality AQ Index Pollutant
Not available.

Snow Depth

Station Depth Elevation

Earthquake Activity

City Distance Mag. Time & Date
Minimum magnitude displayed is 2.5.

Coastal Water Temperatures

Place Temperature

Nearby Weather Stations